Time;durP1;ratioP1;P1;durP2;ratioP2;P2;SDS_P1;SDS_P2;PMS_P1;PMS_P2;Temp;Humidity;BMP_temperature;BMP_pressure;BME280_temperature;BME280_humidity;BME280_pressure;Samples;Min_cycle;Max_cycle;Signal;HPM_P1;HPM_P2
2021/11/20 00:00:46;;;;;;;6.05;3.28;;;;;;;10.26;96.38;102027.78;4976010;28;20134;-80
2021/11/20 00:03:20;;;;;;;5.68;3.33;;;;;;;10.27;96.62;102026.88;4985715;28;20046;-84
2021/11/20 00:05:56;;;;;;;5.70;3.63;;;;;;;10.26;96.53;102026.03;4983549;28;20053;-78
2021/11/20 00:08:29;;;;;;;5.65;2.95;;;;;;;10.27;96.46;102026.88;4998208;28;20446;-80
2021/11/20 00:11:03;;;;;;;8.48;3.85;;;;;;;10.25;96.51;102023.38;4981561;28;20049;-82
2021/11/20 00:13:29;;;;;;;7.18;3.67;;;;;;;10.25;96.35;102020.78;4985037;28;20050;-80
2021/11/20 00:16:01;;;;;;;8.00;3.60;;;;;;;10.24;96.55;102022.50;4979476;28;20400;-79
2021/11/20 00:18:31;;;;;;;7.50;3.97;;;;;;;10.24;96.45;102027.72;5008730;28;20626;-81
2021/11/20 00:21:12;;;;;;;6.03;3.42;;;;;;;10.22;97.06;102019.00;5000573;28;20053;-82
2021/11/20 00:23:46;;;;;;;7.40;4.63;;;;;;;10.22;96.75;102026.84;4985023;28;20053;-81
2021/11/20 00:26:17;;;;;;;6.35;3.10;;;;;;;10.22;96.92;102016.38;4981772;28;20064;-78
2021/11/20 00:29:18;;;;;;;6.82;3.72;;;;;;;10.24;96.82;102016.41;5001799;28;20041;-80
2021/11/20 00:31:59;;;;;;;7.18;3.60;;;;;;;10.22;96.85;102012.84;4978669;28;20068;-81
2021/11/20 00:34:32;;;;;;;6.82;4.15;;;;;;;10.21;97.03;102016.34;4983773;28;20080;-79
2021/11/20 00:37:03;;;;;;;10.43;4.05;;;;;;;10.22;96.99;102019.00;4981973;28;20041;-82
2021/11/20 00:39:32;;;;;;;14.48;4.15;;;;;;;10.22;96.94;102005.91;5000741;28;20050;-88
2021/11/20 00:42:02;;;;;;;10.20;4.50;;;;;;;10.22;96.81;102008.53;4997248;28;20473;-85
2021/11/20 00:44:28;;;;;;;5.30;3.60;;;;;;;10.21;97.25;102006.75;4989628;28;20046;-86
2021/11/20 00:46:55;;;;;;;8.38;4.85;;;;;;;10.21;96.89;102008.50;4977952;28;20131;-82
2021/11/20 00:49:26;;;;;;;5.43;3.33;;;;;;;10.21;97.40;102008.50;4986343;28;20050;-85
2021/11/20 00:51:55;;;;;;;10.70;3.88;;;;;;;10.21;97.07;102000.66;4971411;28;20054;-79
2021/11/20 00:54:24;;;;;;;11.05;4.35;;;;;;;10.23;97.42;101991.06;4993888;28;20046;-80
2021/11/20 00:56:51;;;;;;;8.55;4.13;;;;;;;10.22;97.52;101989.31;4999100;28;20769;-80
2021/11/20 00:59:18;;;;;;;15.95;4.00;;;;;;;10.22;97.17;101987.59;4983801;28;20148;-80
2021/11/20 01:01:54;;;;;;;8.10;3.95;;;;;;;10.21;97.49;101990.19;4967222;28;20754;-80
2021/11/20 01:04:24;;;;;;;9.52;4.30;;;;;;;10.20;97.64;102004.13;4979224;28;20066;-80
2021/11/20 01:06:51;;;;;;;7.90;4.00;;;;;;;10.19;97.83;101991.91;4996501;28;20049;-85
2021/11/20 01:09:25;;;;;;;8.35;4.13;;;;;;;10.21;97.72;101991.06;4967816;28;20134;-79
2021/11/20 01:12:10;;;;;;;7.95;4.10;;;;;;;10.22;97.50;101987.59;4996761;28;20081;-79
2021/11/20 01:14:39;;;;;;;10.63;4.13;;;;;;;10.21;97.70;101991.06;4984928;28;20050;-81
2021/11/20 01:17:08;;;;;;;5.55;4.90;;;;;;;10.24;97.94;101990.22;4955925;28;20053;-82
2021/11/20 01:19:35;;;;;;;11.43;5.65;;;;;;;10.22;97.96;101986.69;4976666;28;20045;-80
2021/11/20 01:22:07;;;;;;;8.10;4.72;;;;;;;10.22;98.27;101987.59;4976997;28;20374;-83
2021/11/20 01:24:34;;;;;;;6.93;4.85;;;;;;;10.21;98.19;101975.34;4978359;28;20129;-80
2021/11/20 01:27:00;;;;;;;8.40;5.30;;;;;;;10.22;98.28;101979.75;4978363;28;20068;-84
2021/11/20 01:29:28;;;;;;;12.88;5.68;;;;;;;10.23;98.50;101980.59;4985506;28;20042;-80
2021/11/20 01:31:57;;;;;;;12.05;5.13;;;;;;;10.23;98.32;101986.75;4987988;28;20060;-79
2021/11/20 01:34:25;;;;;;;9.90;5.38;;;;;;;10.22;97.99;101978.84;4984284;28;20129;-83
2021/11/20 01:36:58;;;;;;;10.13;5.25;;;;;;;10.22;98.49;101981.47;5005474;28;20050;-84
2021/11/20 01:39:30;;;;;;;15.57;4.93;;;;;;;10.23;98.44;101970.13;4987359;28;20373;-82
2021/11/20 01:42:06;;;;;;;8.65;4.63;;;;;;;10.23;98.29;101973.66;4983867;28;20042;-78
2021/11/20 01:45:01;;;;;;;11.00;6.22;;;;;;;10.22;98.59;101971.88;5012489;28;20376;-83
2021/11/20 01:47:39;;;;;;;5.50;4.72;;;;;;;10.23;98.71;101963.19;4977343;28;21330;-82
2021/11/20 01:50:17;;;;;;;9.50;5.13;;;;;;;10.25;98.38;101965.81;4998751;28;20046;-86
2021/11/20 01:53:04;;;;;;;8.55;4.95;;;;;;;10.24;98.38;101970.16;4997520;28;20048;-78
2021/11/20 01:56:05;;;;;;;11.27;4.82;;;;;;;10.24;98.45;101964.06;4984718;28;20050;-81
2021/11/20 01:58:44;;;;;;;8.23;4.97;;;;;;;10.24;98.57;101962.28;4944033;28;20050;-78
2021/11/20 02:01:24;;;;;;;5.85;4.25;;;;;;;10.26;98.43;101951.88;4983391;28;20519;-81
2021/11/20 02:04:05;;;;;;;8.93;5.82;;;;;;;10.25;98.18;101952.72;4979875;28;20050;-86
2021/11/20 02:07:01;;;;;;;7.80;5.13;;;;;;;10.26;98.11;101957.97;4977612;28;20048;-83
2021/11/20 02:10:01;;;;;;;12.30;5.95;;;;;;;10.25;98.38;101950.97;4984394;28;20069;-79
2021/11/20 02:12:34;;;;;;;8.05;5.00;;;;;;;10.25;98.51;101947.50;4986425;28;20047;-78
2021/11/20 02:15:02;;;;;;;18.60;6.30;;;;;;;10.24;98.40;101936.13;4987070;28;20670;-81
2021/11/20 02:17:43;;;;;;;8.85;5.43;;;;;;;10.23;98.34;101947.47;4982438;28;20038;-79
2021/11/20 02:20:30;;;;;;;10.13;5.45;;;;;;;10.25;98.36;101945.75;4988454;28;20053;-78
2021/11/20 02:22:56;;;;;;;11.85;5.25;;;;;;;10.25;97.90;101945.75;4987301;28;20060;-88
2021/11/20 02:25:23;;;;;;;7.43;4.60;;;;;;;10.25;98.18;101945.75;4986884;28;20045;-80
2021/11/20 02:27:55;;;;;;;8.57;5.50;;;;;;;10.26;97.94;101944.91;4999732;28;20044;-80
2021/11/20 02:30:32;;;;;;;6.32;4.78;;;;;;;10.25;98.37;101944.88;4989086;28;20074;-80
2021/11/20 02:33:10;;;;;;;10.07;4.90;;;;;;;10.27;97.90;101935.28;5008174;28;20053;-86
2021/11/20 02:35:46;;;;;;;6.38;4.30;;;;;;;10.25;98.39;101935.28;5007063;28;20045;-86
2021/11/20 02:38:22;;;;;;;7.78;4.65;;;;;;;10.26;98.38;101934.44;5002207;28;20041;-81
2021/11/20 02:40:49;;;;;;;10.27;5.88;;;;;;;10.26;98.37;101936.19;5009318;28;20041;-82
2021/11/20 02:43:18;;;;;;;5.93;4.65;;;;;;;10.26;98.30;101933.56;4991660;28;20037;-80
2021/11/20 02:45:49;;;;;;;8.75;4.82;;;;;;;10.29;97.93;101928.34;5006022;28;20045;-79
2021/11/20 02:48:16;;;;;;;9.20;4.30;;;;;;;10.27;98.16;101927.44;5004831;28;20054;-79
2021/11/20 02:51:06;;;;;;;5.30;4.15;;;;;;;10.28;98.02;101931.81;5024657;28;20586;-83
2021/11/20 02:53:46;;;;;;;12.50;5.00;;;;;;;10.29;98.24;101919.63;5007656;28;20736;-80
2021/11/20 02:56:19;;;;;;;6.60;4.85;;;;;;;10.27;97.94;101917.88;4987926;28;20047;-79
2021/11/20 02:58:46;;;;;;;12.65;4.97;;;;;;;10.29;97.94;101920.50;5004818;28;20037;-79
2021/11/20 03:01:25;;;;;;;7.70;5.18;;;;;;;10.29;97.95;101923.13;5004602;28;20573;-80
2021/11/20 03:03:53;;;;;;;9.23;4.70;;;;;;;10.34;97.53;101917.91;5003195;28;20400;-85
2021/11/20 03:06:20;;;;;;;8.57;5.13;;;;;;;10.29;97.34;101922.25;4999120;28;20052;-78
2021/11/20 03:08:47;;;;;;;10.05;4.65;;;;;;;10.30;97.35;101909.19;4995238;28;20034;-79
2021/11/20 03:11:15;;;;;;;9.80;5.15;;;;;;;10.28;97.44;101918.72;5003462;28;20049;-79
2021/11/20 03:13:46;;;;;;;11.55;5.70;;;;;;;10.30;97.62;101910.91;5002987;28;20146;-80
2021/11/20 03:16:14;;;;;;;7.22;4.85;;;;;;;10.30;96.98;101903.03;5017102;28;20053;-81
2021/11/20 03:18:40;;;;;;;9.13;4.93;;;;;;;10.34;96.83;101899.59;5005120;28;20041;-82
2021/11/20 03:21:08;;;;;;;9.93;6.00;;;;;;;10.34;97.13;101903.13;4984060;28;20457;-85
2021/11/20 03:23:46;;;;;;;9.13;4.82;;;;;;;10.32;96.62;101891.72;4994025;28;20049;-78
2021/11/20 03:26:13;;;;;;;8.00;4.82;;;;;;;10.35;96.56;101896.13;5001380;28;20038;-84
2021/11/20 03:28:42;;;;;;;9.35;5.20;;;;;;;10.33;96.76;101898.72;4991175;28;20385;-84
2021/11/20 03:31:09;;;;;;;9.15;5.13;;;;;;;10.31;96.63;101886.50;4985630;28;20046;-80
2021/11/20 03:33:35;;;;;;;8.20;4.47;;;;;;;10.30;97.03;101885.63;4993028;28;20388;-79
2021/11/20 03:36:03;;;;;;;7.20;4.60;;;;;;;10.29;96.94;101883.84;5005236;28;20057;-86
2021/11/20 03:38:30;;;;;;;4.70;4.05;;;;;;;10.32;96.59;101893.50;5006496;28;20136;-83
2021/11/20 03:40:56;;;;;;;8.55;5.03;;;;;;;10.33;96.52;101890.03;5018042;28;20892;-85
2021/11/20 03:43:23;;;;;;;6.20;4.65;;;;;;;10.34;96.39;101889.13;5007163;28;20087;-88
2021/11/20 03:45:50;;;;;;;6.75;4.38;;;;;;;10.33;96.49;101884.78;5004311;28;20040;-88
2021/11/20 03:48:20;;;;;;;9.65;4.60;;;;;;;10.34;96.53;101884.78;5024046;28;20068;-89
2021/11/20 03:50:49;;;;;;;4.97;4.45;;;;;;;10.34;96.39;101881.28;5011141;28;20041;-88
2021/11/20 03:53:16;;;;;;;4.57;3.60;;;;;;;10.34;96.61;101890.03;5025768;28;20048;-86
2021/11/20 03:55:45;;;;;;;8.07;5.07;;;;;;;10.36;95.95;101890.94;5015931;28;20524;-87
2021/11/20 03:58:12;;;;;;;6.38;4.38;;;;;;;10.36;95.91;101890.94;5044269;28;20630;-85
2021/11/20 04:00:50;;;;;;;7.85;4.25;;;;;;;10.36;95.92;101892.69;5027304;28;20052;-86
2021/11/20 04:03:20;;;;;;;7.88;4.93;;;;;;;10.38;95.79;101891.84;4994744;28;20068;-78
2021/11/20 04:05:51;;;;;;;6.18;4.22;;;;;;;10.39;95.67;101905.81;5011430;28;20049;-78
2021/11/20 04:08:19;;;;;;;6.97;4.65;;;;;;;10.36;95.93;101898.78;5006271;28;20506;-81
2021/11/20 04:10:48;;;;;;;9.20;5.03;;;;;;;10.35;95.88;101901.38;5010164;28;20041;-80
2021/11/20 04:13:16;;;;;;;6.50;3.72;;;;;;;10.35;96.12;101899.69;4994646;28;20048;-79
2021/11/20 04:15:43;;;;;;;8.15;4.90;;;;;;;10.35;96.14;101896.13;5007588;28;20054;-81
2021/11/20 04:18:10;;;;;;;8.10;4.35;;;;;;;10.35;95.95;101896.13;5005824;28;20042;-86
2021/11/20 04:20:41;;;;;;;8.90;4.82;;;;;;;10.36;96.12;101895.31;5025601;28;20034;-89
2021/11/20 04:23:08;;;;;;;11.20;4.97;;;;;;;10.35;95.72;101898.75;5010757;28;20045;-79
2021/11/20 04:25:36;;;;;;;7.00;4.57;;;;;;;10.35;95.62;101899.69;5010763;28;20052;-79
2021/11/20 04:28:03;;;;;;;10.50;4.07;;;;;;;10.34;95.88;101900.50;5005929;28;20049;-79
2021/11/20 04:30:30;;;;;;;8.68;5.28;;;;;;;10.34;96.38;101904.84;5006102;28;20049;-79
2021/11/20 04:32:57;;;;;;;8.32;5.20;;;;;;;10.33;96.17;101897.88;5006947;28;20045;-84
2021/11/20 04:35:26;;;;;;;13.80;5.38;;;;;;;10.29;96.11;101894.31;5018531;28;20052;-80
2021/11/20 04:37:53;;;;;;;6.63;5.38;;;;;;;10.30;96.22;101895.19;5001216;28;20041;-79
2021/11/20 04:40:24;;;;;;;7.13;4.82;;;;;;;10.30;96.11;101889.97;5006209;28;20649;-78
2021/11/20 04:42:51;;;;;;;8.48;5.30;;;;;;;10.32;95.89;101893.50;5008737;28;20530;-79
2021/11/20 04:45:25;;;;;;;10.25;4.82;;;;;;;10.33;95.94;101884.78;5000042;28;20738;-80
2021/11/20 04:47:54;;;;;;;7.55;5.07;;;;;;;10.27;96.05;101888.19;4976089;28;20062;-79
2021/11/20 04:50:22;;;;;;;8.95;6.28;;;;;;;10.27;96.17;101881.22;4992789;28;20046;-79
2021/11/20 04:52:50;;;;;;;10.43;6.90;;;;;;;10.26;96.40;101879.47;4966407;28;20074;-81
2021/11/20 04:55:17;;;;;;;14.25;7.57;;;;;;;10.27;96.35;101888.19;4977718;28;20185;-79
2021/11/20 04:57:45;;;;;;;13.88;7.15;;;;;;;10.29;96.14;101883.00;4960273;28;20046;-83
2021/11/20 05:00:24;;;;;;;11.52;7.03;;;;;;;10.28;96.36;101876.84;4973324;28;20121;-78
2021/11/20 05:02:51;;;;;;;12.07;8.40;;;;;;;10.28;96.48;101884.72;4997681;28;20044;-85
2021/11/20 05:05:18;;;;;;;9.27;7.70;;;;;;;10.29;96.90;101881.25;5000414;28;20046;-82
2021/11/20 05:07:47;;;;;;;13.25;7.93;;;;;;;10.28;96.49;101874.25;4994632;28;20516;-82
2021/11/20 05:10:15;;;;;;;12.80;9.45;;;;;;;10.27;96.69;101881.22;4998130;28;20620;-84
2021/11/20 05:12:43;;;;;;;13.10;9.93;;;;;;;10.33;96.61;101871.69;5008493;28;20111;-82
2021/11/20 05:15:13;;;;;;;21.90;10.27;;;;;;;10.28;97.19;101876.84;4987186;28;20044;-84
2021/11/20 05:17:39;;;;;;;15.93;10.82;;;;;;;10.25;97.35;101879.44;4999578;28;20164;-78
2021/11/20 05:20:07;;;;;;;17.40;11.45;;;;;;;10.24;97.80;101875.06;5004342;28;20112;-83
2021/11/20 05:22:34;;;;;;;16.83;11.30;;;;;;;10.25;97.90;101869.84;4987806;28;20119;-81
2021/11/20 05:25:00;;;;;;;28.33;12.40;;;;;;;10.24;97.89;101869.84;5003895;28;20100;-80
2021/11/20 05:27:27;;;;;;;17.50;12.07;;;;;;;10.22;97.98;101871.53;5000710;28;20048;-87
2021/11/20 05:29:59;;;;;;;24.20;14.00;;;;;;;10.19;98.49;101871.53;5004292;28;20053;-81
2021/11/20 05:32:26;;;;;;;18.20;13.15;;;;;;;10.19;98.60;101875.00;4982327;28;20049;-77
2021/11/20 05:34:53;;;;;;;19.63;12.85;;;;;;;10.18;98.23;101870.66;4981718;28;20203;-82
2021/11/20 05:37:20;;;;;;;18.92;13.50;;;;;;;10.18;98.92;101873.28;4980609;28;20042;-79
2021/11/20 05:39:47;;;;;;;22.52;14.48;;;;;;;10.17;98.62;101871.50;4983038;28;20146;-79
2021/11/20 05:42:13;;;;;;;25.55;15.00;;;;;;;10.16;99.13;101879.34;4970710;28;20145;-81
2021/11/20 05:44:41;;;;;;;25.17;15.02;;;;;;;10.16;98.68;101869.75;4984855;28;20046;-77
2021/11/20 05:47:07;;;;;;;25.58;16.35;;;;;;;10.14;98.93;101873.19;4978615;28;20073;-81
2021/11/20 05:49:39;;;;;;;24.27;15.70;;;;;;;10.13;98.98;101861.88;4962867;28;20043;-85
2021/11/20 05:52:07;;;;;;;22.52;16.73;;;;;;;10.14;99.11;101867.97;4961580;28;20505;-80
2021/11/20 05:54:34;;;;;;;27.05;15.73;;;;;;;10.12;99.17;101867.94;4982386;28;20054;-83
2021/11/20 05:57:01;;;;;;;24.05;16.73;;;;;;;10.12;99.28;101862.72;4965306;28;20149;-81
2021/11/20 05:59:28;;;;;;;24.50;16.48;;;;;;;10.11;99.23;101860.94;4979828;28;20043;-78
2021/11/20 06:01:58;;;;;;;25.33;15.75;;;;;;;10.11;99.56;101850.50;4969364;28;20086;-78
2021/11/20 06:04:26;;;;;;;22.88;16.00;;;;;;;10.12;99.47;101846.13;4952381;28;20050;-81
2021/11/20 06:06:53;;;;;;;32.63;17.58;;;;;;;10.09;99.30;101840.00;4958933;28;20027;-85
2021/11/20 06:09:19;;;;;;;29.25;18.05;;;;;;;10.11;99.37;101842.63;4981348;28;20035;-85
2021/11/20 06:11:46;;;;;;;26.60;18.05;;;;;;;10.07;99.51;101839.09;4981820;28;20038;-79
2021/11/20 06:14:12;;;;;;;29.00;18.08;;;;;;;10.07;99.63;101839.09;4974810;28;20128;-79
2021/11/20 06:16:39;;;;;;;26.80;17.55;;;;;;;10.08;99.57;101840.88;4965464;28;20055;-79
2021/11/20 06:19:07;;;;;;;29.02;18.20;;;;;;;10.08;99.66;101842.63;4964293;28;20058;-85
2021/11/20 06:21:34;;;;;;;24.95;18.13;;;;;;;10.07;99.38;101843.47;4944575;28;20378;-79
2021/11/20 06:24:00;;;;;;;27.48;18.05;;;;;;;10.05;99.79;101850.41;4966330;28;20050;-77
2021/11/20 06:26:28;;;;;;;28.00;17.83;;;;;;;10.06;99.68;101841.69;4948806;28;20046;-81
2021/11/20 06:28:55;;;;;;;25.98;17.88;;;;;;;10.06;99.90;101847.84;4965291;28;20045;-86
2021/11/20 06:31:26;;;;;;;30.00;19.85;;;;;;;10.09;99.63;101844.38;4947505;28;20058;-81
2021/11/20 06:33:54;;;;;;;29.42;19.17;;;;;;;10.07;99.36;101841.72;4977324;28;20100;-84
2021/11/20 06:36:24;;;;;;;28.70;18.95;;;;;;;10.08;99.62;101843.47;4956896;28;20050;-83
2021/11/20 06:38:51;;;;;;;30.15;18.27;;;;;;;10.13;99.13;101834.81;4963598;28;20693;-82
2021/11/20 06:41:18;;;;;;;27.23;18.77;;;;;;;10.09;99.60;101842.63;4964291;28;20042;-80
2021/11/20 06:43:45;;;;;;;27.80;19.65;;;;;;;10.12;98.92;101847.03;4965456;28;20141;-81
2021/11/20 06:46:16;;;;;;;29.98;18.35;;;;;;;10.13;98.75;101856.63;4967807;28;20519;-81
2021/11/20 06:48:44;;;;;;;29.85;19.15;;;;;;;10.16;98.73;101842.72;4976292;28;20049;-86
2021/11/20 06:51:13;;;;;;;31.60;18.80;;;;;;;10.14;98.64;101847.91;4998306;28;20053;-81
2021/11/20 06:53:43;;;;;;;25.55;18.02;;;;;;;10.14;98.54;101847.91;4998596;28;20049;-85
2021/11/20 06:56:14;;;;;;;30.02;19.40;;;;;;;10.14;98.68;101850.50;5002377;28;20038;-87
2021/11/20 07:01:36;;;;;;;30.63;17.93;;;;;;;10.13;98.65;101859.25;4955868;28;20049;-83
2021/11/20 07:04:07;;;;;;;30.55;19.25;;;;;;;10.14;98.21;101857.50;4984190;28;20108;-83
2021/11/20 07:06:53;;;;;;;25.40;17.77;;;;;;;10.13;98.20;101851.41;4981568;28;20056;-79
2021/11/20 07:09:22;;;;;;;23.90;16.92;;;;;;;10.14;98.50;101862.72;4983022;28;20050;-83
2021/11/20 07:11:48;;;;;;;25.52;17.58;;;;;;;10.16;98.13;101855.78;4982106;28;20486;-81
2021/11/20 07:14:15;;;;;;;25.25;18.30;;;;;;;10.16;97.64;101863.66;5002625;28;20048;-87
2021/11/20 07:16:43;;;;;;;26.05;17.50;;;;;;;10.14;97.60;101858.38;4980816;28;20439;-79
2021/11/20 07:19:12;;;;;;;27.10;19.60;;;;;;;10.14;97.74;101860.97;4964512;28;20042;-82
2021/11/20 07:21:38;;;;;;;25.42;17.70;;;;;;;10.13;97.94;101854.00;4983313;28;20042;-79
2021/11/20 07:24:13;;;;;;;27.17;18.08;;;;;;;10.13;98.22;101861.88;4985010;28;20053;-85
2021/11/20 07:26:40;;;;;;;26.30;17.50;;;;;;;10.13;98.15;101848.78;4998726;28;20050;-80
2021/11/20 07:29:07;;;;;;;24.40;17.15;;;;;;;10.12;98.43;101851.34;4983109;28;20689;-82
2021/11/20 07:31:34;;;;;;;30.05;19.05;;;;;;;10.10;98.40;101846.09;4995357;28;20050;-81
2021/11/20 07:34:00;;;;;;;22.67;18.00;;;;;;;10.08;98.82;101847.84;5002123;28;20049;-77
2021/11/20 07:36:28;;;;;;;25.33;17.73;;;;;;;10.10;98.46;101843.50;4987887;28;20052;-77
2021/11/20 07:39:00;;;;;;;25.92;17.67;;;;;;;10.11;98.36;101847.88;4983144;28;20046;-83
2021/11/20 07:41:28;;;;;;;23.75;17.33;;;;;;;10.12;98.21;101843.50;5002110;28;20477;-80
2021/11/20 07:43:56;;;;;;;25.88;17.25;;;;;;;10.11;98.07;101842.63;4995691;28;20049;-77
2021/11/20 07:46:24;;;;;;;25.48;18.15;;;;;;;10.12;98.35;101833.94;5003863;28;20041;-80
2021/11/20 07:48:51;;;;;;;23.85;16.48;;;;;;;10.16;97.78;101832.25;5003233;28;20049;-78
2021/11/20 07:51:18;;;;;;;22.52;16.23;;;;;;;10.16;97.35;101835.72;5007777;28;20120;-81
2021/11/20 07:53:47;;;;;;;20.63;15.65;;;;;;;10.18;96.91;101838.34;5006299;28;20042;-84
2021/11/20 07:56:15;;;;;;;21.08;15.82;;;;;;;10.20;96.75;101824.44;5034124;28;20068;-77
2021/11/20 07:58:43;;;;;;;20.35;15.20;;;;;;;10.19;96.62;101821.81;5007499;28;20044;-82
2021/11/20 08:01:12;;;;;;;20.52;14.13;;;;;;;10.18;96.53;101823.56;5011698;28;20041;-77
2021/11/20 08:03:38;;;;;;;19.67;12.95;;;;;;;10.24;95.98;101820.97;5010268;28;20049;-79
2021/11/20 08:06:05;;;;;;;18.73;13.48;;;;;;;10.20;95.99;101808.72;5005448;28;20045;-80
2021/11/20 08:08:32;;;;;;;16.98;13.32;;;;;;;10.21;95.71;101807.88;5005247;28;20109;-78
2021/11/20 08:10:58;;;;;;;16.85;12.35;;;;;;;10.22;95.19;101807.03;5002389;28;20067;-83
2021/11/20 08:13:25;;;;;;;19.10;13.40;;;;;;;10.23;95.02;101803.56;5005314;28;20041;-80
2021/11/20 08:15:52;;;;;;;15.57;12.35;;;;;;;10.26;94.57;101798.34;4988946;28;20049;-78
2021/11/20 08:18:19;;;;;;;15.90;11.73;;;;;;;10.28;95.07;101795.72;4985748;28;20046;-81
2021/11/20 08:20:47;;;;;;;12.45;11.23;;;;;;;10.33;94.67;101808.88;5006334;28;20038;-81
2021/11/20 08:23:14;;;;;;;14.68;11.65;;;;;;;10.35;94.33;101801.91;5000448;28;20046;-78
2021/11/20 08:25:48;;;;;;;15.10;11.13;;;;;;;10.43;93.35;101802.91;5002914;28;20186;-79
2021/11/20 08:28:18;;;;;;;15.82;11.60;;;;;;;10.44;93.19;101794.16;5002311;28;20038;-81
2021/11/20 08:30:46;;;;;;;15.15;11.32;;;;;;;10.49;93.01;101800.34;5003303;28;20037;-78
2021/11/20 08:33:13;;;;;;;15.23;11.52;;;;;;;10.52;92.43;101802.09;5019232;28;20103;-80
2021/11/20 08:35:42;;;;;;;14.63;10.15;;;;;;;10.54;92.72;101803.00;5002872;28;20041;-81
2021/11/20 08:38:13;;;;;;;15.23;11.15;;;;;;;10.55;91.95;101791.69;5005694;28;20053;-78
2021/11/20 08:40:42;;;;;;;12.75;10.45;;;;;;;10.56;92.51;101796.06;5007640;28;20044;-78
2021/11/20 08:43:09;;;;;;;13.07;10.55;;;;;;;10.59;92.47;101796.06;4992141;28;20049;-84
2021/11/20 08:45:52;;;;;;;12.60;9.95;;;;;;;10.61;91.97;101796.09;5004643;28;20127;-85
2021/11/20 08:48:21;;;;;;;13.45;10.38;;;;;;;10.62;91.60;101798.72;5001519;28;20053;-82
2021/11/20 08:51:05;;;;;;;15.40;11.15;;;;;;;10.63;91.52;101797.84;5008672;28;20037;-79
2021/11/20 08:53:32;;;;;;;19.20;10.57;;;;;;;10.67;91.39;101793.53;5005229;28;20056;-81
2021/11/20 08:55:59;;;;;;;10.93;9.10;;;;;;;10.69;91.31;101795.31;5005636;28;20045;-80
2021/11/20 08:58:26;;;;;;;13.48;10.65;;;;;;;10.70;91.16;101783.97;5002987;28;20543;-78
2021/11/20 09:00:57;;;;;;;12.25;10.50;;;;;;;10.71;91.72;101782.22;4989537;28;20636;-82
2021/11/20 09:04:08;;;;;;;13.43;9.55;;;;;;;10.74;91.33;101777.88;5002748;28;20143;-79
2021/11/20 09:06:56;;;;;;;14.82;10.45;;;;;;;10.80;90.61;101779.66;4987116;28;20111;-83
2021/11/20 09:09:52;;;;;;;13.70;9.80;;;;;;;10.84;90.35;101772.72;5004216;28;20547;-84
2021/11/20 09:12:38;;;;;;;17.88;10.52;;;;;;;10.83;89.80;101779.69;4996684;28;20052;-80
2021/11/20 09:15:43;;;;;;;12.25;9.07;;;;;;;10.84;90.17;101775.34;5006936;28;20045;-80
2021/11/20 09:18:10;;;;;;;14.30;9.90;;;;;;;10.88;90.38;101772.75;4991468;28;20536;-79
2021/11/20 09:20:38;;;;;;;14.93;9.80;;;;;;;10.90;89.79;101771.03;5006204;28;20540;-81
2021/11/20 09:23:06;;;;;;;13.50;9.32;;;;;;;10.93;89.71;101771.03;5000960;28;20073;-79
2021/11/20 09:25:34;;;;;;;14.23;9.93;;;;;;;11.01;89.55;101778.94;4995178;28;20076;-78
2021/11/20 09:28:08;;;;;;;16.90;11.45;;;;;;;11.02;89.25;101774.59;5017722;28;20107;-81
2021/11/20 09:30:38;;;;;;;;;;;;;;;11.06;87.87;101766.75;5006215;28;20045;-77
2021/11/20 09:33:05;;;;;;;11.35;9.35;;;;;;;11.06;87.81;101763.28;5006367;28;19929;-81
2021/11/20 09:35:33;;;;;;;13.52;9.80;;;;;;;11.08;87.86;101762.41;5003102;28;20045;-83
2021/11/20 09:38:00;;;;;;;12.23;10.35;;;;;;;11.13;88.08;101758.94;4986937;28;20052;-79
2021/11/20 09:40:31;;;;;;;14.43;10.27;;;;;;;11.16;87.14;101759.84;5020751;28;20042;-81
2021/11/20 09:43:01;;;;;;;13.77;9.45;;;;;;;11.10;86.84;101754.56;5018333;28;20029;-87
2021/11/20 09:45:34;;;;;;;13.15;10.55;;;;;;;11.09;87.81;101756.31;5007026;28;20116;-77
2021/11/20 09:48:13;;;;;;;12.57;9.90;;;;;;;11.12;87.62;101749.31;5008227;28;20053;-79
2021/11/20 09:51:05;;;;;;;13.07;9.98;;;;;;;11.14;87.81;101755.47;4996737;28;20501;-78
2021/11/20 09:53:32;;;;;;;13.40;9.90;;;;;;;11.18;87.28;101747.63;5022861;28;20053;-78
2021/11/20 09:56:06;;;;;;;12.13;9.18;;;;;;;11.22;86.39;101746.78;5009884;28;20049;-82
2021/11/20 09:58:46;;;;;;;11.45;9.50;;;;;;;11.23;86.70;101745.03;5019727;28;20448;-80
2021/11/20 10:01:42;;;;;;;11.60;10.40;;;;;;;11.29;85.95;101741.56;4984623;28;20146;-82
2021/11/20 10:04:21;;;;;;;12.70;10.73;;;;;;;11.31;85.97;101739.84;5004290;28;20426;-78
2021/11/20 10:06:56;;;;;;;15.50;9.55;;;;;;;11.35;85.09;101731.13;5002488;28;20462;-81
2021/11/20 10:09:30;;;;;;;14.65;9.60;;;;;;;11.30;84.06;101732.84;5005213;28;20569;-81
2021/11/20 10:12:14;;;;;;;11.02;9.20;;;;;;;11.29;84.40;101725.84;5016126;28;20168;-82
2021/11/20 10:14:49;;;;;;;12.32;9.32;;;;;;;11.28;84.39;101719.72;5021905;28;20034;-79
2021/11/20 10:17:41;;;;;;;13.05;9.65;;;;;;;11.29;84.32;101715.34;5016963;28;20060;-80
2021/11/20 10:20:36;;;;;;;10.50;8.57;;;;;;;11.36;83.34;101714.53;5002367;28;20558;-82
2021/11/20 10:23:11;;;;;;;13.73;9.55;;;;;;;11.38;83.02;101718.91;4989483;28;20064;-83
2021/11/20 10:26:19;;;;;;;10.77;8.82;;;;;;;11.42;83.23;101719.81;5021227;28;20045;-82
2021/11/20 10:29:26;;;;;;;16.38;8.93;;;;;;;11.49;82.47;101712.84;5002195;28;20041;-81
2021/11/20 10:32:19;;;;;;;13.68;9.27;;;;;;;11.50;80.95;101709.31;5020666;28;20476;-84
2021/11/20 10:34:57;;;;;;;10.38;9.00;;;;;;;11.51;80.47;101704.13;4991828;28;20088;-77
2021/11/20 10:37:51;;;;;;;12.13;8.90;;;;;;;11.42;80.70;101709.31;5004888;28;20056;-83
2021/11/20 10:40:42;;;;;;;11.35;8.18;;;;;;;11.39;80.96;101697.06;5004262;28;20077;-77
2021/11/20 10:43:30;;;;;;;11.52;8.68;;;;;;;11.33;80.35;101696.16;5007387;28;20404;-80
2021/11/20 10:46:21;;;;;;;11.95;9.43;;;;;;;11.27;80.88;101691.75;5004451;28;20041;-84
2021/11/20 10:49:18;;;;;;;12.82;8.93;;;;;;;11.31;81.25;101693.53;5004020;28;20486;-81
2021/11/20 10:51:44;;;;;;;11.82;9.02;;;;;;;11.38;80.27;101689.19;5007850;28;20042;-80
2021/11/20 10:54:54;;;;;;;9.27;8.38;;;;;;;11.34;80.79;101684.78;5022810;28;20883;-78
2021/11/20 10:57:34;;;;;;;11.70;8.90;;;;;;;11.37;80.09;101672.59;4993346;28;20071;-79
2021/11/20 11:00:45;;;;;;;10.85;8.80;;;;;;;11.35;78.89;101671.69;5006089;28;20053;-81
2021/11/20 11:03:39;;;;;;;13.18;9.13;;;;;;;11.32;79.97;101665.59;5017158;28;20045;-83
2021/11/20 11:06:41;;;;;;;11.87;8.67;;;;;;;11.28;79.42;101651.56;5004803;28;20053;-79
2021/11/20 11:09:32;;;;;;;11.88;9.15;;;;;;;11.21;80.21;101661.16;5007343;28;20285;-79
2021/11/20 11:12:09;;;;;;;12.73;9.63;;;;;;;11.18;79.82;101650.66;4989810;28;20050;-79
2021/11/20 11:14:58;;;;;;;13.50;10.32;;;;;;;11.12;79.69;101650.66;5007648;28;20049;-79
2021/11/20 11:18:18;;;;;;;12.35;9.23;;;;;;;11.04;80.07;101645.38;5022270;28;20055;-80
2021/11/20 11:21:06;;;;;;;13.07;8.60;;;;;;;11.00;79.70;101650.56;5020133;28;20144;-77
2021/11/20 11:24:17;;;;;;;10.82;8.93;;;;;;;11.01;80.43;101639.22;5019740;28;20042;-79
2021/11/20 11:27:28;;;;;;;12.18;8.55;;;;;;;11.00;79.63;101627.88;5021775;28;20041;-83
2021/11/20 11:30:10;;;;;;;11.43;8.77;;;;;;;11.01;78.54;101621.75;5011230;28;20049;-83
2021/11/20 11:32:43;;;;;;;11.52;8.63;;;;;;;10.96;79.01;101615.59;4992305;28;20042;-79
2021/11/20 11:35:19;;;;;;;11.53;7.87;;;;;;;10.92;78.99;101612.13;5005013;28;20060;-79
2021/11/20 11:38:11;;;;;;;10.57;7.82;;;;;;;10.82;79.38;101615.56;5018648;28;20288;-80
2021/11/20 11:41:02;;;;;;;11.00;8.45;;;;;;;10.78;79.70;101605.03;5020010;28;20657;-77
2021/11/20 11:43:47;;;;;;;15.18;8.68;;;;;;;10.76;79.81;101607.66;4988967;28;20089;-81
2021/11/20 11:47:01;;;;;;;12.27;8.45;;;;;;;10.75;79.36;101598.94;5002513;28;20059;-86
2021/11/20 11:49:47;;;;;;;10.88;7.63;;;;;;;10.76;78.88;101598.03;5004976;28;20048;-76